Time;durP1;ratioP1;P1;durP2;ratioP2;P2;SDS_P1;SDS_P2;PMS_P1;PMS_P2;Temp;Humidity;BMP_temperature;BMP_pressure;BME280_temperature;BME280_humidity;BME280_pressure;Samples;Min_cycle;Max_cycle;Signal;HPM_P1;HPM_P2
2022/06/28 00:01:40;;;;;;;11.00;9.90;;;;;;;;;;5093065;28;20501;-71
2022/06/28 00:04:07;;;;;;;13.23;11.03;;;;;;;;;;5093036;28;20447;-70
2022/06/28 00:06:36;;;;;;;11.20;9.70;;;;;;;;;;5093362;28;20446;-71
2022/06/28 00:09:03;;;;;;;12.10;9.23;;;;;;;;;;5093449;28;20831;-70
2022/06/28 00:11:30;;;;;;;10.10;8.97;;;;;;;;;;5093146;28;20474;-71
2022/06/28 00:13:57;;;;;;;10.43;9.43;;;;;;;;;;5092931;28;20454;-71
2022/06/28 00:16:24;;;;;;;10.20;9.20;;;;;;;;;;5092975;28;20458;-71
2022/06/28 00:18:51;;;;;;;11.67;9.07;;;;;;;;;;5093081;28;20938;-71
2022/06/28 00:21:18;;;;;;;11.40;8.97;;;;;;;;;;5092896;28;20474;-71
2022/06/28 00:23:48;;;;;;;12.17;9.13;;;;;;;;;;5092801;28;21002;-71
2022/06/28 00:26:15;;;;;;;9.10;8.10;;;;;;;;;;5093040;28;20461;-71
2022/06/28 00:28:42;;;;;;;9.87;8.87;;;;;;;;;;5092968;28;20454;-71
2022/06/28 00:31:09;;;;;;;12.50;9.77;;;;;;;;;;5092996;28;20463;-71
2022/06/28 00:33:36;;;;;;;11.50;9.67;;;;;;;;;;5092916;28;20446;-71
2022/06/28 00:36:04;;;;;;;13.50;9.17;;;;;;;;;;5093030;28;20810;-71
2022/06/28 00:38:31;;;;;;;8.77;7.87;;;;;;;;;;5092896;28;20462;-71
2022/06/28 00:41:00;;;;;;;10.50;7.13;;;;;;;;;;5093029;28;21068;-71
2022/06/28 00:43:27;;;;;;;9.20;7.67;;;;;;;;;;5092628;28;20494;-71
2022/06/28 00:45:54;;;;;;;9.47;8.57;;;;;;;;;;5092809;28;20454;-71
2022/06/28 00:48:23;;;;;;;8.57;7.77;;;;;;;;;;5092677;28;20454;-71
2022/06/28 00:50:50;;;;;;;8.07;7.10;;;;;;;;;;5092624;28;20470;-71
2022/06/28 00:53:18;;;;;;;13.30;8.10;;;;;;;;;;5092297;28;20443;-71
2022/06/28 00:55:45;;;;;;;9.70;7.17;;;;;;;;;;5092637;28;20446;-71
2022/06/28 00:58:15;;;;;;;9.43;8.57;;;;;;;;;;5095995;28;20468;-71
2022/06/28 01:00:43;;;;;;;10.73;7.10;;;;;;;;;;5096795;28;20465;-71
2022/06/28 01:03:10;;;;;;;8.33;7.17;;;;;;;;;;5096468;28;20581;-71
2022/06/28 01:05:37;;;;;;;8.17;7.30;;;;;;;;;;5096460;28;20837;-71
2022/06/28 01:08:06;;;;;;;9.73;7.90;;;;;;;;;;5096482;28;20939;-73
2022/06/28 01:10:33;;;;;;;9.37;7.50;;;;;;;;;;5096443;28;20446;-73
2022/06/28 01:13:00;;;;;;;9.17;8.27;;;;;;;;;;5096451;28;20928;-71
2022/06/28 01:15:28;;;;;;;12.13;7.60;;;;;;;;;;5096046;28;20454;-70
2022/06/28 01:17:56;;;;;;;9.30;7.00;;;;;;;;;;5096433;28;20446;-71
2022/06/28 01:20:23;;;;;;;13.10;8.47;;;;;;;;;;5096161;28;20966;-71
2022/06/28 01:22:52;;;;;;;11.00;7.97;;;;;;;;;;5096166;28;20494;-71
2022/06/28 01:25:19;;;;;;;9.50;7.27;;;;;;;;;;5095970;28;20462;-71
2022/06/28 01:27:47;;;;;;;11.60;8.27;;;;;;;;;;5096257;28;20947;-71
2022/06/28 01:30:14;;;;;;;7.87;7.10;;;;;;;;;;5095917;28;20496;-73
2022/06/28 01:32:42;;;;;;;6.80;6.10;;;;;;;;;;5095933;28;20469;-73
2022/06/28 01:35:10;;;;;;;8.17;7.33;;;;;;;;;;5095829;28;20458;-74
2022/06/28 01:37:37;;;;;;;8.53;6.57;;;;;;;;;;5096201;28;20446;-73
2022/06/28 01:40:07;;;;;;;7.50;6.80;;;;;;;;;;5095845;28;20454;-73
2022/06/28 01:42:34;;;;;;;8.93;8.03;;;;;;;;;;5095536;28;20494;-73
2022/06/28 01:45:01;;;;;;;11.07;7.63;;;;;;;;;;5095649;28;20529;-73
2022/06/28 01:47:29;;;;;;;7.77;7.07;;;;;;;;;;5095861;28;20812;-71
2022/06/28 01:49:57;;;;;;;10.90;7.67;;;;;;;;;;5095803;28;20451;-71
2022/06/28 01:52:24;;;;;;;9.13;8.23;;;;;;;;;;5095162;28;20971;-71
2022/06/28 01:54:51;;;;;;;9.17;6.83;;;;;;;;;;5095360;28;20465;-71
2022/06/28 01:57:19;;;;;;;8.43;7.73;;;;;;;;;;5095414;28;20454;-71
2022/06/28 01:59:47;;;;;;;8.07;7.47;;;;;;;;;;5095592;28;20451;-71
2022/06/28 02:02:14;;;;;;;12.17;8.53;;;;;;;;;;5095261;28;20838;-71
2022/06/28 02:04:41;;;;;;;9.23;7.83;;;;;;;;;;5095257;28;20446;-71
2022/06/28 02:07:08;;;;;;;9.20;8.30;;;;;;;;;;5095452;28;20955;-71
2022/06/28 02:09:35;;;;;;;9.07;8.17;;;;;;;;;;5095125;28;20450;-71
2022/06/28 02:12:02;;;;;;;8.43;7.67;;;;;;;;;;5095463;28;20471;-71
2022/06/28 02:14:30;;;;;;;10.10;7.33;;;;;;;;;;5095199;28;20447;-71
2022/06/28 02:16:58;;;;;;;11.10;8.37;;;;;;;;;;5095374;28;20451;-71
2022/06/28 02:19:26;;;;;;;8.77;7.70;;;;;;;;;;5094966;28;20455;-71
2022/06/28 02:21:53;;;;;;;9.50;7.97;;;;;;;;;;5095110;28;20482;-71
2022/06/28 02:24:21;;;;;;;7.47;6.63;;;;;;;;;;5094480;28;20498;-71
2022/06/28 02:26:48;;;;;;;10.47;8.53;;;;;;;;;;5095281;28;20473;-71
2022/06/28 02:29:15;;;;;;;8.97;8.13;;;;;;;;;;5095068;28;20447;-71
2022/06/28 02:31:43;;;;;;;9.47;8.23;;;;;;;;;;5095276;28;20470;-71
2022/06/28 02:40:21;;;;;;;8.80;7.90;;;;;;;;;;5094596;28;20440;-71
2022/06/28 02:42:26;;;;;;;8.30;7.40;;;;;;;;;;5094507;28;20846;-71
2022/06/28 02:44:54;;;;;;;8.53;7.40;;;;;;;;;;5094366;28;20442;-71
2022/06/28 02:47:22;;;;;;;8.87;8.00;;;;;;;;;;5094613;28;20932;-71
2022/06/28 02:49:49;;;;;;;9.70;8.80;;;;;;;;;;5094615;28;20446;-71
2022/06/28 02:52:16;;;;;;;12.20;9.17;;;;;;;;;;5094331;28;20478;-71
2022/06/28 02:54:43;;;;;;;9.43;8.53;;;;;;;;;;5093941;28;20447;-71
2022/06/28 02:57:11;;;;;;;10.00;9.00;;;;;;;;;;5094368;28;20821;-71
2022/06/28 02:59:38;;;;;;;9.97;8.37;;;;;;;;;;5094129;28;20451;-71
2022/06/28 03:02:05;;;;;;;12.10;9.73;;;;;;;;;;5094087;28;20470;-71
2022/06/28 03:04:33;;;;;;;13.33;8.27;;;;;;;;;;5093976;28;20486;-71
2022/06/28 03:07:01;;;;;;;9.83;8.90;;;;;;;;;;5094291;28;20821;-71
2022/06/28 03:09:28;;;;;;;10.03;9.03;;;;;;;;;;5094169;28;20469;-71
2022/06/28 03:11:55;;;;;;;12.13;8.57;;;;;;;;;;5094022;28;20471;-71
2022/06/28 03:14:22;;;;;;;13.10;9.70;;;;;;;;;;5093711;28;20815;-71
2022/06/28 03:16:49;;;;;;;10.70;9.43;;;;;;;;;;5094157;28;20458;-71
2022/06/28 03:19:16;;;;;;;13.40;10.27;;;;;;;;;;5093627;28;20940;-71
2022/06/28 03:21:45;;;;;;;10.47;8.90;;;;;;;;;;5094133;28;20994;-71
2022/06/28 03:24:12;;;;;;;11.63;9.10;;;;;;;;;;5093612;28;20493;-71
2022/06/28 03:26:40;;;;;;;10.73;8.83;;;;;;;;;;5093952;28;20971;-71
2022/06/28 03:29:07;;;;;;;11.63;8.80;;;;;;;;;;5093960;28;20936;-71
2022/06/28 03:31:34;;;;;;;8.90;8.10;;;;;;;;;;5093753;28;20466;-71
2022/06/28 03:34:01;;;;;;;11.20;9.00;;;;;;;;;;5093745;28;20454;-71
2022/06/28 03:36:28;;;;;;;9.53;8.63;;;;;;;;;;5093775;28;20455;-71
2022/06/28 03:38:57;;;;;;;9.03;8.10;;;;;;;;;;5093857;28;20451;-71
2022/06/28 03:41:24;;;;;;;9.97;9.03;;;;;;;;;;5093465;28;20837;-71
2022/06/28 03:43:51;;;;;;;10.80;9.20;;;;;;;;;;5093386;28;20491;-71
2022/06/28 03:46:19;;;;;;;11.70;9.57;;;;;;;;;;5093737;28;20540;-71
2022/06/28 03:48:46;;;;;;;10.70;8.40;;;;;;;;;;5093575;28;20451;-71
2022/06/28 03:51:14;;;;;;;11.27;10.17;;;;;;;;;;5093289;28;20463;-71
2022/06/28 03:53:41;;;;;;;10.00;9.00;;;;;;;;;;5093086;28;20450;-71
2022/06/28 03:56:10;;;;;;;10.80;9.70;;;;;;;;;;5093569;28;20944;-71
2022/06/28 03:58:38;;;;;;;10.17;9.17;;;;;;;;;;5093689;28;20454;-73
2022/06/28 04:01:05;;;;;;;9.10;7.83;;;;;;;;;;5093266;28;20475;-73
2022/06/28 04:03:32;;;;;;;9.23;8.00;;;;;;;;;;5093207;28;20482;-73
2022/06/28 04:05:59;;;;;;;9.20;7.20;;;;;;;;;;5093362;28;20954;-71
2022/06/28 04:08:26;;;;;;;8.30;7.50;;;;;;;;;;5093220;28;20454;-71
2022/06/28 04:11:13;;;;;;;9.23;8.33;;;;;;;;;;5093298;28;20473;-71
2022/06/28 04:13:42;;;;;;;7.37;6.63;;;;;;;;;;5093109;28;20492;-71
2022/06/28 04:16:10;;;;;;;8.80;7.90;;;;;;;;;;5093388;28;20798;-71
2022/06/28 04:18:37;;;;;;;7.50;6.80;;;;;;;;;;5093111;28;20447;-71
2022/06/28 04:21:04;;;;;;;8.70;6.00;;;;;;;;;;5093067;28;20839;-71
2022/06/28 04:23:31;;;;;;;7.70;6.20;;;;;;;;;;5092710;28;21013;-71
2022/06/28 04:25:58;;;;;;;11.23;6.10;;;;;;;;;;5093095;28;20454;-71
2022/06/28 04:28:25;;;;;;;17.17;6.30;;;;;;;;;;5092942;28;20443;-71
2022/06/28 04:30:54;;;;;;;6.63;5.90;;;;;;;;;;5092923;28;20463;-71
2022/06/28 04:33:21;;;;;;;9.30;5.00;;;;;;;;;;5096737;28;20461;-71
2022/06/28 04:35:48;;;;;;;9.20;4.90;;;;;;;;;;5096981;28;20966;-71
2022/06/28 04:38:15;;;;;;;5.23;3.60;;;;;;;;;;5096930;28;20452;-73
2022/06/28 04:40:42;;;;;;;4.33;3.93;;;;;;;;;;5096983;28;21056;-73
2022/06/28 04:43:10;;;;;;;4.00;3.60;;;;;;;;;;5096877;28;20479;-73
2022/06/28 04:45:37;;;;;;;4.63;4.23;;;;;;;;;;5096924;28;20529;-74
2022/06/28 04:48:06;;;;;;;7.73;4.30;;;;;;;;;;5096745;28;20466;-74
2022/06/28 04:50:33;;;;;;;6.37;4.00;;;;;;;;;;5096831;28;20453;-74
2022/06/28 04:53:00;;;;;;;6.10;3.50;;;;;;;;;;5096423;28;20447;-74
2022/06/28 04:55:28;;;;;;;3.90;3.60;;;;;;;;;;5096530;28;20462;-74
2022/06/28 04:57:55;;;;;;;4.63;3.60;;;;;;;;;;5096970;28;20936;-74
2022/06/28 05:00:22;;;;;;;4.13;3.73;;;;;;;;;;5096563;28;20454;-74
2022/06/28 05:02:49;;;;;;;5.03;3.23;;;;;;;;;;5096706;28;20948;-73
2022/06/28 05:05:18;;;;;;;4.20;3.13;;;;;;;;;;5096237;28;20509;-73
2022/06/28 05:07:45;;;;;;;3.50;3.10;;;;;;;;;;5094817;28;20469;-73
2022/06/28 05:10:12;;;;;;;4.37;2.80;;;;;;;;;;5096244;28;20473;-73
2022/06/28 05:12:39;;;;;;;9.03;4.30;;;;;;;;;;5096140;28;20478;-73
2022/06/28 05:15:07;;;;;;;4.50;3.47;;;;;;;;;;5095876;28;20449;-73
2022/06/28 05:17:34;;;;;;;6.13;3.53;;;;;;;;;;5096219;28;20458;-71
2022/06/28 05:20:02;;;;;;;3.80;3.50;;;;;;;;;;5095367;28;20459;-71
2022/06/28 05:22:30;;;;;;;4.50;3.53;;;;;;;;;;5095986;28;20506;-71
2022/06/28 05:24:57;;;;;;;3.73;3.40;;;;;;;;;;5094878;28;21014;-71
2022/06/28 05:27:24;;;;;;;4.37;3.57;;;;;;;;;;5092506;28;20459;-71
2022/06/28 05:29:52;;;;;;;3.90;3.60;;;;;;;;;;5093379;28;20442;-71
2022/06/28 05:32:19;;;;;;;4.07;3.70;;;;;;;;;;5093120;28;20470;-71
2022/06/28 05:34:46;;;;;;;3.63;3.20;;;;;;;;;;5093094;28;20458;-71
2022/06/28 05:37:13;;;;;;;4.10;3.80;;;;;;;;;;5093532;28;20455;-71
2022/06/28 05:39:42;;;;;;;6.37;3.57;;;;;;;;;;5092947;28;20454;-71
2022/06/28 05:42:10;;;;;;;4.63;3.90;;;;;;;;;;5092731;28;20473;-71
2022/06/28 05:44:37;;;;;;;4.30;3.33;;;;;;;;;;5092974;28;20489;-71
2022/06/28 05:47:04;;;;;;;5.90;5.40;;;;;;;;;;5092871;28;20462;-71
2022/06/28 05:49:32;;;;;;;6.17;4.83;;;;;;;;;;5092758;28;20969;-71
2022/06/28 05:51:59;;;;;;;3.50;3.20;;;;;;;;;;5093131;28;20474;-71
2022/06/28 05:54:26;;;;;;;6.00;3.40;;;;;;;;;;5092508;28;20450;-71
2022/06/28 05:56:54;;;;;;;4.00;3.70;;;;;;;;;;5093130;28;20461;-71
2022/06/28 05:59:21;;;;;;;4.00;3.60;;;;;;;;;;5093034;28;20455;-71
2022/06/28 06:01:48;;;;;;;3.93;3.53;;;;;;;;;;5092923;28;20502;-71
2022/06/28 06:04:16;;;;;;;3.87;3.03;;;;;;;;;;5092398;28;20490;-71
2022/06/28 06:06:43;;;;;;;4.30;3.70;;;;;;;;;;5093097;28;20455;-71
2022/06/28 06:09:10;;;;;;;3.90;3.43;;;;;;;;;;5092953;28;20495;-71
2022/06/28 06:11:37;;;;;;;3.60;2.70;;;;;;;;;;5092969;28;20493;-71
2022/06/28 06:14:06;;;;;;;4.50;2.97;;;;;;;;;;5092641;28;20947;-71
2022/06/28 06:16:33;;;;;;;4.53;3.87;;;;;;;;;;5092889;28;20506;-71
2022/06/28 06:19:00;;;;;;;4.60;3.60;;;;;;;;;;5092713;28;20446;-71
2022/06/28 06:21:27;;;;;;;6.77;2.83;;;;;;;;;;5092814;28;20955;-72
2022/06/28 06:23:54;;;;;;;3.70;3.33;;;;;;;;;;5055009;28;1060021;-72
2022/06/28 06:26:21;;;;;;;5.13;2.67;;;;;;;;;;5094610;28;20208;-72
2022/06/28 06:28:48;;;;;;;3.63;3.33;;;;;;;;;;5094788;28;20457;-72
2022/06/28 06:31:17;;;;;;;3.40;3.10;;;;;;;;;;5094581;28;20883;-72
2022/06/28 06:33:44;;;;;;;3.03;2.77;;;;;;;;;;5094218;28;20462;-72
2022/06/28 06:36:11;;;;;;;7.10;2.40;;;;;;;;;;5093829;28;20477;-72
2022/06/28 06:38:38;;;;;;;5.23;4.73;;;;;;;;;;5094551;28;20503;-72
2022/06/28 06:41:06;;;;;;;4.00;3.10;;;;;;;;;;5094400;28;20473;-72
2022/06/28 06:43:33;;;;;;;3.60;3.37;;;;;;;;;;5094524;28;20458;-72
2022/06/28 06:46:00;;;;;;;4.47;4.07;;;;;;;;;;5094680;28;20818;-72
2022/06/28 06:48:29;;;;;;;3.87;3.57;;;;;;;;;;5081455;28;20478;-72
2022/06/28 06:50:56;;;;;;;3.57;3.00;;;;;;;;;;5072860;28;20822;-72
2022/06/28 06:53:23;;;;;;;3.67;2.80;;;;;;;;;;5072399;28;20979;-72
2022/06/28 06:55:50;;;;;;;3.33;3.03;;;;;;;;;;5071880;28;20454;-72
2022/06/28 06:58:18;;;;;;;3.40;3.10;;;;;;;;;;5072426;28;20964;-72
2022/06/28 07:00:45;;;;;;;2.80;2.60;;;;;;;;;;5072475;28;20467;-72
2022/06/28 07:03:12;;;;;;;3.50;3.03;;;;;;;;;;5072358;28;20929;-72
2022/06/28 07:05:40;;;;;;;3.60;3.30;;;;;;;;;;5072434;28;20530;-72
2022/06/28 07:08:08;;;;;;;4.10;3.23;;;;;;;;;;5072293;28;20940;-72
2022/06/28 07:10:35;;;;;;;3.03;2.80;;;;;;;;;;5072335;28;20447;-72
2022/06/28 07:13:02;;;;;;;3.77;3.27;;;;;;;;;;5072189;28;20490;-72
2022/06/28 07:15:29;;;;;;;4.33;3.57;;;;;;;;;;5072083;28;20499;-72
2022/06/28 07:17:56;;;;;;;4.17;3.87;;;;;;;;;;5072172;28;20458;-72
2022/06/28 07:20:23;;;;;;;3.60;3.30;;;;;;;;;;5072084;28;20541;-72
2022/06/28 07:22:52;;;;;;;6.13;3.43;;;;;;;;;;5072378;28;20456;-72
2022/06/28 07:25:19;;;;;;;4.87;4.00;;;;;;;;;;5072064;28;20486;-72
2022/06/28 07:27:46;;;;;;;8.10;4.43;;;;;;;;;;5072246;28;20455;-72
2022/06/28 07:30:13;;;;;;;5.43;4.60;;;;;;;;;;5071891;28;20455;-72
2022/06/28 07:32:40;;;;;;;4.83;4.53;;;;;;;;;;5072030;28;20471;-71
2022/06/28 07:35:08;;;;;;;4.40;3.80;;;;;;;;;;5071765;28;20448;-72
2022/06/28 07:37:36;;;;;;;4.50;3.73;;;;;;;;;;5072036;28;20447;-72
2022/06/28 07:40:05;;;;;;;3.60;3.30;;;;;;;;;;5071953;28;20491;-72
2022/06/28 07:42:32;;;;;;;4.57;3.57;;;;;;;;;;5071579;28;20483;-72
2022/06/28 07:44:59;;;;;;;4.93;3.00;;;;;;;;;;5084291;28;20505;-72
2022/06/28 07:47:27;;;;;;;3.03;2.83;;;;;;;;;;5092065;28;20453;-72
2022/06/28 07:52:38;;;;;;;3.87;3.57;;;;;;;;;;5091695;28;21042;-71
2022/06/28 07:55:09;;;;;;;4.50;2.80;;;;;;;;;;5091965;28;20450;-71
2022/06/28 07:57:36;;;;;;;4.00;3.70;;;;;;;;;;5092031;28;20458;-71
2022/06/28 08:00:04;;;;;;;3.30;3.00;;;;;;;;;;5092041;28;20451;-71
2022/06/28 08:02:31;;;;;;;5.67;3.50;;;;;;;;;;5091782;28;20481;-71
2022/06/28 08:04:59;;;;;;;2.40;2.20;;;;;;;;;;5091888;28;20482;-71
2022/06/28 08:07:26;;;;;;;5.90;5.40;;;;;;;;;;5091598;28;20862;-71
2022/06/28 08:09:53;;;;;;;3.27;2.97;;;;;;;;;;5091632;28;20454;-71
2022/06/28 08:12:21;;;;;;;8.17;4.53;;;;;;;;;;5091582;28;20466;-71
2022/06/28 08:14:49;;;;;;;3.83;2.70;;;;;;;;;;5091705;28;20461;-71
2022/06/28 08:17:16;;;;;;;2.73;2.53;;;;;;;;;;5091665;28;20465;-71
2022/06/28 08:19:43;;;;;;;8.93;2.87;;;;;;;;;;5091937;28;20822;-72
2022/06/28 08:22:10;;;;;;;3.30;2.87;;;;;;;;;;5091621;28;20984;-72
2022/06/28 08:24:37;;;;;;;4.50;2.60;;;;;;;;;;5092508;28;20497;-72
2022/06/28 08:27:05;;;;;;;4.57;3.67;;;;;;;;;;5093024;28;20948;-72
2022/06/28 08:29:34;;;;;;;4.00;3.30;;;;;;;;;;5092577;28;20500;-71
2022/06/28 08:32:01;;;;;;;3.53;2.87;;;;;;;;;;5093160;28;20523;-71
2022/06/28 08:34:28;;;;;;;3.13;2.73;;;;;;;;;;5092638;28;20462;-72
2022/06/28 08:36:56;;;;;;;4.60;2.90;;;;;;;;;;5093168;28;20454;-72
2022/06/28 08:39:23;;;;;;;3.40;3.10;;;;;;;;;;5092818;28;20818;-72
2022/06/28 08:41:51;;;;;;;13.93;2.97;;;;;;;;;;5092913;28;20471;-72
2022/06/28 08:44:19;;;;;;;4.00;3.70;;;;;;;;;;5092649;28;20455;-72
2022/06/28 08:46:51;;;;;;;4.93;3.90;;;;;;;;;;5093013;28;20827;-71
2022/06/28 08:49:24;;;;;;;5.00;3.03;;;;;;;;;;5092908;28;20450;-71
2022/06/28 08:51:52;;;;;;;6.80;3.20;;;;;;;;;;5092863;28;20516;-71
2022/06/28 08:54:20;;;;;;;3.80;3.00;;;;;;;;;;5092283;28;20446;-71
2022/06/28 08:56:49;;;;;;;3.30;3.00;;;;;;;;;;5092912;28;20500;-71
2022/06/28 08:59:17;;;;;;;2.97;2.47;;;;;;;;;;5092839;28;20547;-71
2022/06/28 09:01:44;;;;;;;6.87;3.17;;;;;;;;;;5092766;28;20466;-71
2022/06/28 09:04:13;;;;;;;3.57;3.27;;;;;;;;;;5092530;28;20454;-73
2022/06/28 09:06:40;;;;;;;3.17;2.87;;;;;;;;;;5092780;28;20438;-73
2022/06/28 09:09:07;;;;;;;5.30;4.30;;;;;;;;;;5092678;28;20451;-74
2022/06/28 09:11:38;;;;;;;3.50;3.20;;;;;;;;;;5092640;28;20836;-73
2022/06/28 09:14:20;;;;;;;3.87;3.57;;;;;;;;;;5092402;28;20450;-74
2022/06/28 09:16:47;;;;;;;3.60;3.30;;;;;;;;;;5092721;28;20454;-74
2022/06/28 09:19:16;;;;;;;3.77;2.93;;;;;;;;;;5095937;28;20449;-73
2022/06/28 09:21:43;;;;;;;7.23;3.20;;;;;;;;;;5096769;28;20475;-73
2022/06/28 09:24:11;;;;;;;3.00;2.70;;;;;;;;;;5095895;28;20454;-73
2022/06/28 09:26:38;;;;;;;3.03;2.83;;;;;;;;;;5096181;28;20509;-73
2022/06/28 09:29:12;;;;;;;6.67;3.80;;;;;;;;;;5096185;28;20450;-73
2022/06/28 09:31:39;;;;;;;7.70;3.10;;;;;;;;;;5095952;28;20471;-73
2022/06/28 09:34:07;;;;;;;3.10;2.90;;;;;;;;;;5095743;28;20454;-73
2022/06/28 09:36:36;;;;;;;7.40;2.73;;;;;;;;;;5096064;28;20451;-73
2022/06/28 09:39:13;;;;;;;6.17;3.30;;;;;;;;;;5096037;28;20447;-73
2022/06/28 09:41:43;;;;;;;2.90;2.63;;;;;;;;;;5095936;28;20470;-73
2022/06/28 09:44:11;;;;;;;3.93;3.47;;;;;;;;;;5095655;28;20443;-73
2022/06/28 09:46:38;;;;;;;4.20;3.80;;;;;;;;;;5095889;28;20505;-73
2022/06/28 09:49:05;;;;;;;3.43;3.13;;;;;;;;;;5095947;28;20454;-74
2022/06/28 09:51:34;;;;;;;5.63;3.90;;;;;;;;;;5095669;28;20506;-73
2022/06/28 09:54:04;;;;;;;4.27;3.97;;;;;;;;;;5095172;28;20461;-73
2022/06/28 09:56:34;;;;;;;3.60;3.30;;;;;;;;;;5095516;28;20504;-73
2022/06/28 09:59:02;;;;;;;3.67;2.60;;;;;;;;;;5095604;28;20455;-73
2022/06/28 10:01:29;;;;;;;3.30;3.10;;;;;;;;;;5095513;28;20979;-73
2022/06/28 10:03:57;;;;;;;4.80;3.73;;;;;;;;;;5095343;28;20825;-73
2022/06/28 10:06:25;;;;;;;8.20;4.10;;;;;;;;;;5095442;28;20848;-73
2022/06/28 10:08:52;;;;;;;6.00;3.37;;;;;;;;;;5093236;28;20487;-73
2022/06/28 10:11:22;;;;;;;3.40;2.73;;;;;;;;;;5095010;28;20478;-73
2022/06/28 10:16:46;;;;;;;4.03;2.93;;;;;;;;;;5095157;28;20567;-74
2022/06/28 10:19:15;;;;;;;3.50;3.00;;;;;;;;;;5094708;28;20450;-74
2022/06/28 10:21:45;;;;;;;3.83;3.53;;;;;;;;;;5095166;28;20466;-74
2022/06/28 10:24:13;;;;;;;3.73;3.23;;;;;;;;;;5094855;28;20489;-74
2022/06/28 10:26:44;;;;;;;3.87;3.57;;;;;;;;;;5094915;28;20578;-73
2022/06/28 10:29:11;;;;;;;4.00;3.60;;;;;;;;;;5093966;28;20496;-74
2022/06/28 10:31:40;;;;;;;4.93;3.13;;;;;;;;;;5094820;28;20510;-74
2022/06/28 10:34:10;;;;;;;3.90;3.27;;;;;;;;;;5094678;28;20446;-73
2022/06/28 10:36:45;;;;;;;4.60;3.23;;;;;;;;;;5095062;28;20645;-74
2022/06/28 10:39:14;;;;;;;2.80;2.27;;;;;;;;;;5094658;28;20446;-73
2022/06/28 10:41:44;;;;;;;3.50;3.20;;;;;;;;;;5094816;28;20478;-74
2022/06/28 10:44:12;;;;;;;3.63;3.23;;;;;;;;;;5094329;28;20457;-73
2022/06/28 10:46:39;;;;;;;5.03;3.13;;;;;;;;;;5094668;28;21026;-73
2022/06/28 10:49:10;;;;;;;5.50;3.67;;;;;;;;;;5094555;28;20827;-73
2022/06/28 10:51:39;;;;;;;4.30;3.37;;;;;;;;;;5094465;28;20534;-73
2022/06/28 10:54:08;;;;;;;7.53;3.50;;;;;;;;;;5093753;28;20831;-74
2022/06/28 10:56:39;;;;;;;5.53;3.43;;;;;;;;;;5094577;28;20451;-74
2022/06/28 10:59:09;;;;;;;4.00;3.60;;;;;;;;;;5094276;28;20457;-74
2022/06/28 11:01:55;;;;;;;8.83;3.80;;;;;;;;;;5094569;28;20478;-74
2022/06/28 11:04:24;;;;;;;3.97;3.67;;;;;;;;;;5094030;28;20454;-74
2022/06/28 11:06:52;;;;;;;5.80;3.57;;;;;;;;;;5094310;28;20483;-74
2022/06/28 11:09:24;;;;;;;4.77;3.73;;;;;;;;;;5093985;28;20451;-73
2022/06/28 11:12:08;;;;;;;3.30;2.93;;;;;;;;;;5094142;28;20474;-73
2022/06/28 11:14:45;;;;;;;4.53;3.87;;;;;;;;;;5093874;28;20450;-73
2022/06/28 11:17:16;;;;;;;4.70;3.20;;;;;;;;;;5094174;28;20465;-73
2022/06/28 11:19:50;;;;;;;3.73;3.43;;;;;;;;;;5093920;28;20458;-73
2022/06/28 11:22:19;;;;;;;3.90;3.23;;;;;;;;;;5093941;28;20474;-73
2022/06/28 11:24:47;;;;;;;3.50;3.20;;;;;;;;;;5093701;28;20579;-73
2022/06/28 11:27:23;;;;;;;4.13;3.73;;;;;;;;;;5093719;28;21007;-73
2022/06/28 11:29:53;;;;;;;4.40;4.00;;;;;;;;;;5093832;28;20469;-73
2022/06/28 11:32:21;;;;;;;20.40;6.00;;;;;;;;;;5093666;28;20473;-73
2022/06/28 11:35:02;;;;;;;5.80;3.70;;;;;;;;;;5093651;28;20462;-73
2022/06/28 11:37:29;;;;;;;3.20;3.00;;;;;;;;;;5093785;28;20447;-73
2022/06/28 11:39:57;;;;;;;5.30;3.37;;;;;;;;;;5093665;28;20956;-72
2022/06/28 11:42:25;;;;;;;4.00;3.60;;;;;;;;;;5093469;28;20470;-72
2022/06/28 11:44:54;;;;;;;3.67;3.37;;;;;;;;;;5093553;28;20457;-72
2022/06/28 11:47:21;;;;;;;7.23;3.40;;;;;;;;;;5093499;28;20498;-72
2022/06/28 11:50:07;;;;;;;2.90;2.70;;;;;;;;;;5093576;28;20455;-72
2022/06/28 11:52:34;;;;;;;3.90;3.13;;;;;;;;;;5092982;28;20462;-73
2022/06/28 11:55:01;;;;;;;2.93;2.70;;;;;;;;;;5093130;28;20451;-73
2022/06/28 11:57:28;;;;;;;3.20;3.00;;;;;;;;;;5093370;28;20461;-71
2022/06/28 12:00:02;;;;;;;4.63;2.80;;;;;;;;;;5092414;28;20461;-72
2022/06/28 12:02:39;;;;;;;2.90;2.70;;;;;;;;;;5093324;28;20343;-73
2022/06/28 12:05:07;;;;;;;6.43;3.37;;;;;;;;;;5093097;28;20452;-73
2022/06/28 12:07:35;;;;;;;4.10;3.80;;;;;;;;;;5093110;28;20486;-73
2022/06/28 12:10:02;;;;;;;5.80;3.40;;;;;;;;;;5093309;28;20453;-72
2022/06/28 12:12:29;;;;;;;4.10;3.70;;;;;;;;;;5093223;28;20967;-70
2022/06/28 12:14:57;;;;;;;5.33;4.30;;;;;;;;;;5093160;28;20454;-73
2022/06/28 12:17:26;;;;;;;4.00;3.57;;;;;;;;;;5093214;28;20450;-72
2022/06/28 12:19:53;;;;;;;8.70;3.13;;;;;;;;;;5092992;28;20451;-72
2022/06/28 12:22:23;;;;;;;3.97;3.10;;;;;;;;;;5093016;28;20836;-72
2022/06/28 12:24:51;;;;;;;3.50;3.20;;;;;;;;;;5092951;28;20908;-73
2022/06/28 12:27:19;;;;;;;5.07;3.80;;;;;;;;;;5092855;28;20482;-72
2022/06/28 12:29:47;;;;;;;7.20;4.40;;;;;;;;;;5093201;28;20469;-72
2022/06/28 12:32:14;;;;;;;3.00;2.70;;;;;;;;;;5093419;28;20524;-72
2022/06/28 12:34:42;;;;;;;4.10;3.80;;;;;;;;;;5092845;28;20477;-72
2022/06/28 12:37:10;;;;;;;3.63;3.33;;;;;;;;;;5092874;28;20451;-72
2022/06/28 12:39:37;;;;;;;3.83;3.20;;;;;;;;;;5092973;28;20446;-72
2022/06/28 12:42:06;;;;;;;5.00;3.77;;;;;;;;;;5092962;28;20847;-72
2022/06/28 12:44:33;;;;;;;4.40;3.53;;;;;;;;;;5092817;28;20951;-73
2022/06/28 12:47:00;;;;;;;3.53;3.20;;;;;;;;;;5092756;28;20486;-72
2022/06/28 12:49:28;;;;;;;4.53;2.97;;;;;;;;;;5092757;28;20462;-73
2022/06/28 12:51:56;;;;;;;3.97;3.13;;;;;;;;;;5092782;28;20528;-72
2022/06/28 12:54:24;;;;;;;8.00;2.93;;;;;;;;;;5095900;28;20454;-73
2022/06/28 12:56:51;;;;;;;3.90;3.60;;;;;;;;;;5096987;28;20450;-72
2022/06/28 12:59:18;;;;;;;8.33;3.37;;;;;;;;;;5096701;28;20453;-72
2022/06/28 13:01:45;;;;;;;3.23;2.60;;;;;;;;;;5096621;28;20549;-72
2022/06/28 13:04:13;;;;;;;3.20;2.90;;;;;;;;;;5096498;28;20447;-73
2022/06/28 13:06:42;;;;;;;5.20;3.27;;;;;;;;;;5096640;28;20861;-73
2022/06/28 13:09:10;;;;;;;2.70;2.47;;;;;;;;;;5096657;28;20451;-73
2022/06/28 13:11:38;;;;;;;4.37;2.50;;;;;;;;;;5096340;28;20569;-73
2022/06/28 13:14:05;;;;;;;4.77;3.20;;;;;;;;;;5096214;28;20450;-73
2022/06/28 13:16:32;;;;;;;13.23;3.53;;;;;;;;;;5096587;28;20817;-73
2022/06/28 13:18:59;;;;;;;3.23;2.77;;;;;;;;;;5096342;28;20805;-73
2022/06/28 13:21:26;;;;;;;3.67;2.60;;;;;;;;;;5096189;28;20474;-73
2022/06/28 13:23:53;;;;;;;4.80;2.60;;;;;;;;;;5096095;28;20955;-73
2022/06/28 13:26:22;;;;;;;4.47;3.63;;;;;;;;;;5096088;28;20482;-73
2022/06/28 13:28:50;;;;;;;3.87;2.67;;;;;;;;;;5096178;28;20537;-73
2022/06/28 13:31:18;;;;;;;4.53;3.30;;;;;;;;;;5096126;28;20548;-73
2022/06/28 13:33:45;;;;;;;3.20;2.90;;;;;;;;;;5095994;28;20450;-73
2022/06/28 13:36:12;;;;;;;4.10;3.07;;;;;;;;;;5096121;28;20463;-73
2022/06/28 13:38:41;;;;;;;6.43;2.80;;;;;;;;;;5096168;28;20836;-73
2022/06/28 13:41:09;;;;;;;3.27;2.97;;;;;;;;;;5095838;28;20481;-73
2022/06/28 13:43:38;;;;;;;14.07;4.60;;;;;;;;;;5095776;28;20537;-73
2022/06/28 13:46:06;;;;;;;6.60;3.40;;;;;;;;;;5095720;28;20573;-73
2022/06/28 13:48:33;;;;;;;3.07;2.53;;;;;;;;;;5095971;28;20446;-73
2022/06/28 13:51:01;;;;;;;3.50;3.20;;;;;;;;;;5095798;28;20471;-73
2022/06/28 13:53:29;;;;;;;2.70;2.50;;;;;;;;;;5095103;28;20455;-73
2022/06/28 13:55:56;;;;;;;2.80;2.60;;;;;;;;;;5095752;28;20443;-73
2022/06/28 13:58:23;;;;;;;3.13;2.83;;;;;;;;;;5095526;28;20454;-73
2022/06/28 14:00:52;;;;;;;3.00;2.67;;;;;;;;;;5095622;28;20477;-73
2022/06/28 14:03:19;;;;;;;6.97;3.77;;;;;;;;;;5095274;28;20450;-73
2022/06/28 14:05:47;;;;;;;3.30;2.20;;;;;;;;;;5095453;28;20447;-73
2022/06/28 14:08:14;;;;;;;6.80;3.00;;;;;;;;;;5095294;28;20956;-73
2022/06/28 14:10:41;;;;;;;3.57;3.23;;;;;;;;;;5095439;28;20952;-73
2022/06/28 14:13:10;;;;;;;14.23;3.13;;;;;;;;;;5095165;28;20449;-73
2022/06/28 14:15:37;;;;;;;5.40;3.30;;;;;;;;;;5095135;28;20478;-74
2022/06/28 14:18:06;;;;;;;2.70;2.40;;;;;;;;;;5095288;28;20446;-73
2022/06/28 14:20:33;;;;;;;4.63;3.77;;;;;;;;;;5095213;28;20802;-73
2022/06/28 14:23:01;;;;;;;5.50;2.90;;;;;;;;;;5095136;28;21007;-73
2022/06/28 14:25:28;;;;;;;3.45;3.15;;;;;;;;;;5094112;28;20473;-74
2022/06/28 14:27:55;;;;;;;6.93;3.70;;;;;;;;;;5094958;28;20701;-73
2022/06/28 14:30:22;;;;;;;6.32;3.20;;;;;;;;;;5094472;28;20528;-73
2022/06/28 14:32:49;;;;;;;3.50;3.20;;;;;;;;;;5093863;28;20445;-73
2022/06/28 14:35:18;;;;;;;5.30;3.33;;;;;;;;;;5094633;28;20213;-74
2022/06/28 14:37:45;;;;;;;10.37;3.00;;;;;;;;;;5094833;28;20958;-74
2022/06/28 14:40:12;;;;;;;4.00;3.17;;;;;;;;;;5094665;28;20446;-74
2022/06/28 14:42:40;;;;;;;4.17;3.17;;;;;;;;;;5094799;28;20979;-73
2022/06/28 14:45:09;;;;;;;6.33;3.23;;;;;;;;;;5094598;28;20535;-74
2022/06/28 14:47:37;;;;;;;4.07;3.63;;;;;;;;;;5094904;28;20505;-73
2022/06/28 14:50:05;;;;;;;6.30;4.80;;;;;;;;;;5094535;28;20446;-73
2022/06/28 14:52:34;;;;;;;4.30;3.93;;;;;;;;;;5094391;28;20471;-73
2022/06/28 14:55:01;;;;;;;4.60;4.20;;;;;;;;;;5094356;28;20451;-73
2022/06/28 14:57:28;;;;;;;3.57;3.37;;;;;;;;;;5094637;28;20459;-72